createdAt,value
2024-02-18T00:00:06.524Z,13.00
2024-02-18T00:02:37.500Z,12.88
2024-02-18T00:05:07.901Z,13.33
2024-02-18T00:07:36.285Z,13.07
2024-02-18T00:10:05.200Z,12.80
2024-02-18T00:12:33.607Z,12.70
2024-02-18T00:15:01.780Z,13.57
2024-02-18T00:17:30.155Z,13.10
2024-02-18T00:19:58.496Z,13.10
2024-02-18T00:22:26.765Z,12.55
2024-02-18T00:24:54.977Z,13.35
2024-02-18T00:27:23.587Z,13.55
2024-02-18T00:29:51.870Z,13.93
2024-02-18T00:32:20.197Z,13.60
2024-02-18T00:34:49.058Z,13.85
2024-02-18T00:37:17.333Z,12.90
2024-02-18T00:39:45.881Z,13.68
2024-02-18T00:42:14.255Z,13.83
2024-02-18T00:44:42.687Z,13.40
2024-02-18T00:47:11.089Z,14.50
2024-02-18T00:49:39.329Z,15.05
2024-02-18T00:52:08.616Z,14.50
2024-02-18T00:54:36.936Z,14.00
2024-02-18T00:57:05.394Z,13.60
2024-02-18T00:59:33.828Z,14.32
2024-02-18T01:02:02.394Z,14.43
2024-02-18T01:04:30.723Z,14.02
2024-02-18T01:06:59.262Z,14.00
2024-02-18T01:09:27.651Z,14.05
2024-02-18T01:11:56.680Z,14.15
2024-02-18T01:14:25.271Z,14.05
2024-02-18T01:16:54.225Z,14.00
2024-02-18T01:19:22.738Z,13.80
2024-02-18T01:21:51.274Z,14.68
2024-02-18T01:24:19.748Z,14.10
2024-02-18T01:26:48.068Z,14.27
2024-02-18T01:29:16.334Z,14.25
2024-02-18T01:31:44.725Z,13.83
2024-02-18T01:34:13.338Z,14.30
2024-02-18T01:36:41.766Z,14.75
2024-02-18T01:39:10.565Z,14.55
2024-02-18T01:41:39.214Z,14.32
2024-02-18T01:44:07.512Z,14.53
2024-02-18T01:46:35.767Z,14.82
2024-02-18T01:49:05.144Z,14.93
2024-02-18T01:51:36.479Z,14.85
2024-02-18T01:54:06.960Z,15.32
2024-02-18T01:56:35.930Z,15.90
2024-02-18T01:59:04.211Z,15.88
2024-02-18T02:01:32.783Z,15.10
2024-02-18T02:04:02.556Z,15.68
2024-02-18T02:06:31.996Z,15.45
2024-02-18T02:09:04.284Z,15.20
2024-02-18T02:11:32.740Z,14.63
2024-02-18T02:14:00.854Z,15.38
2024-02-18T02:16:29.249Z,15.43
2024-02-18T02:18:59.219Z,15.90
2024-02-18T02:21:27.556Z,15.87
2024-02-18T02:23:56.072Z,15.52
2024-02-18T02:26:26.373Z,14.88
2024-02-18T02:29:13.414Z,14.93
2024-02-18T02:31:43.674Z,15.00
2024-02-18T02:34:12.290Z,15.77
2024-02-18T02:36:40.872Z,15.45
2024-02-18T02:39:10.155Z,15.90
2024-02-18T02:41:39.125Z,14.55
2024-02-18T02:44:07.539Z,14.38
2024-02-18T02:46:35.911Z,15.13
2024-02-18T02:49:04.289Z,13.90
2024-02-18T02:51:33.064Z,15.10
2024-02-18T02:54:01.392Z,14.60
2024-02-18T02:56:29.839Z,16.35
2024-02-18T02:58:58.368Z,15.10
2024-02-18T03:01:26.883Z,15.63
2024-02-18T03:03:55.530Z,15.27
2024-02-18T03:06:24.143Z,15.60
2024-02-18T03:08:52.469Z,17.23
2024-02-18T03:11:20.710Z,15.70
2024-02-18T03:13:50.767Z,16.33
2024-02-18T03:16:19.056Z,16.00
2024-02-18T03:18:47.911Z,16.30
2024-02-18T03:21:16.655Z,16.77
2024-02-18T03:23:45.809Z,15.80
2024-02-18T03:26:15.007Z,16.55
2024-02-18T03:28:43.213Z,15.50
2024-02-18T03:31:18.782Z,15.63
2024-02-18T03:33:48.042Z,15.80
2024-02-18T03:36:16.954Z,14.47
2024-02-18T03:38:45.384Z,15.23
2024-02-18T03:41:13.792Z,14.90
2024-02-18T03:43:42.256Z,14.20
2024-02-18T03:46:10.642Z,13.93
2024-02-18T03:48:39.113Z,13.77
2024-02-18T03:51:07.473Z,14.73
2024-02-18T03:53:36.096Z,14.38
2024-02-18T03:56:04.365Z,12.88
2024-02-18T03:58:33.330Z,12.77
2024-02-18T04:01:01.969Z,11.73
2024-02-18T04:03:30.565Z,10.93
2024-02-18T04:05:59.018Z,10.73
2024-02-18T04:08:27.812Z,10.43
2024-02-18T04:10:56.124Z,10.15
2024-02-18T04:13:24.425Z,9.50
2024-02-18T04:15:52.894Z,8.85
2024-02-18T04:18:22.266Z,8.90
2024-02-18T04:20:52.633Z,8.77
2024-02-18T04:23:21.516Z,8.73
2024-02-18T04:25:49.886Z,8.57
2024-02-18T04:28:18.267Z,8.60
2024-02-18T04:30:46.530Z,8.57
2024-02-18T04:33:15.005Z,8.23
2024-02-18T04:35:43.304Z,8.90
2024-02-18T04:38:12.046Z,9.13
2024-02-18T04:40:40.431Z,9.82
2024-02-18T04:43:11.382Z,9.45
2024-02-18T04:45:40.279Z,9.48
2024-02-18T04:48:09.272Z,9.40
2024-02-18T04:50:37.615Z,9.30
2024-02-18T04:53:06.584Z,9.93
2024-02-18T04:55:35.216Z,9.50
2024-02-18T04:58:03.990Z,10.10
2024-02-18T05:00:32.404Z,10.07
2024-02-18T05:03:00.768Z,10.00
2024-02-18T05:05:29.256Z,10.00
2024-02-18T05:07:57.376Z,9.32
2024-02-18T05:10:26.350Z,8.70
2024-02-18T05:12:54.815Z,7.72
2024-02-18T05:15:23.065Z,7.70
2024-02-18T05:17:51.465Z,6.97
2024-02-18T05:20:19.894Z,6.40
2024-02-18T05:22:48.609Z,5.80
2024-02-18T05:25:17.160Z,5.65
2024-02-18T05:27:45.809Z,5.40
2024-02-18T05:30:14.915Z,4.63
2024-02-18T05:32:43.471Z,4.50
2024-02-18T05:35:12.633Z,4.15
2024-02-18T05:37:41.174Z,3.85
2024-02-18T05:40:10.739Z,3.47
2024-02-18T05:42:39.084Z,3.50
2024-02-18T05:45:07.675Z,3.80
2024-02-18T05:47:36.322Z,3.50
2024-02-18T05:50:05.223Z,3.38
2024-02-18T05:52:33.602Z,3.13
2024-02-18T05:55:02.016Z,3.15
2024-02-18T05:57:30.950Z,3.53
2024-02-18T05:59:59.471Z,2.97
2024-02-18T06:02:28.105Z,3.50
2024-02-18T06:04:56.308Z,4.20
2024-02-18T06:07:24.886Z,3.65
2024-02-18T06:09:53.197Z,3.95
2024-02-18T06:12:24.361Z,3.95
2024-02-18T06:14:52.783Z,3.95
2024-02-18T06:17:20.916Z,3.80
2024-02-18T06:19:49.297Z,4.30
2024-02-18T06:22:17.735Z,3.65
2024-02-18T06:24:46.236Z,3.60
2024-02-18T06:27:14.486Z,3.42
2024-02-18T06:29:42.924Z,3.77
2024-02-18T06:32:11.028Z,4.10
2024-02-18T06:34:39.424Z,3.78
2024-02-18T06:37:07.782Z,3.95
2024-02-18T06:39:36.115Z,3.65
2024-02-18T06:42:04.425Z,3.67
2024-02-18T06:44:33.128Z,3.83
2024-02-18T06:47:01.572Z,3.78
2024-02-18T06:49:30.147Z,3.63
2024-02-18T06:51:58.325Z,3.95
2024-02-18T06:54:26.714Z,4.27
2024-02-18T06:56:54.913Z,4.85
2024-02-18T06:59:24.185Z,7.43
2024-02-18T07:01:52.794Z,12.48
2024-02-18T07:04:21.504Z,18.42
2024-02-18T07:06:49.931Z,20.87
2024-02-18T07:09:18.705Z,20.55
2024-02-18T07:11:46.855Z,15.90
2024-02-18T07:14:15.214Z,16.20
2024-02-18T07:16:43.541Z,13.70
2024-02-18T07:19:12.056Z,6.60
2024-02-18T07:21:40.388Z,5.53
2024-02-18T07:24:08.747Z,6.03
2024-02-18T07:26:38.880Z,6.10
2024-02-18T07:29:07.144Z,6.32
2024-02-18T07:31:38.650Z,5.70
2024-02-18T07:34:08.409Z,6.55
2024-02-18T07:36:36.800Z,6.63
2024-02-18T07:39:05.276Z,6.00
2024-02-18T07:41:33.443Z,6.38
2024-02-18T07:44:01.857Z,6.23
2024-02-18T07:46:30.166Z,6.85
2024-02-18T07:48:58.679Z,7.88
2024-02-18T07:51:30.238Z,8.10
2024-02-18T07:53:58.568Z,8.15
2024-02-18T07:56:26.910Z,8.20
2024-02-18T07:58:55.508Z,8.45
2024-02-18T08:01:24.652Z,7.93
2024-02-18T08:03:53.592Z,7.50
2024-02-18T08:06:21.840Z,7.43
2024-02-18T08:08:50.570Z,7.73
2024-02-18T08:11:18.851Z,7.35
2024-02-18T08:13:47.252Z,7.43
2024-02-18T08:16:16.078Z,7.82
2024-02-18T08:18:44.478Z,8.07
2024-02-18T08:21:12.902Z,8.40
2024-02-18T08:23:41.413Z,8.50
2024-02-18T08:26:09.900Z,8.57
2024-02-18T08:28:38.080Z,8.90
2024-02-18T08:31:07.548Z,8.35
2024-02-18T08:33:35.961Z,7.70
2024-02-18T08:36:04.209Z,7.68
2024-02-18T08:38:32.492Z,7.70
2024-02-18T08:41:00.667Z,7.65
2024-02-18T08:43:29.595Z,7.32
2024-02-18T08:45:57.795Z,6.77
2024-02-18T08:48:26.391Z,6.68
2024-02-18T08:50:54.530Z,6.75
2024-02-18T08:53:23.300Z,6.38
2024-02-18T08:55:52.421Z,6.60
2024-02-18T08:58:20.806Z,6.97
2024-02-18T09:00:49.496Z,6.63
2024-02-18T09:03:17.905Z,6.32
2024-02-18T09:05:46.301Z,6.65
2024-02-18T09:08:14.648Z,6.22
2024-02-18T09:10:42.905Z,6.30
2024-02-18T09:13:11.359Z,7.18
2024-02-18T09:15:40.146Z,7.25
2024-02-18T09:18:09.670Z,6.60
2024-02-18T09:20:38.020Z,7.70
2024-02-18T09:23:06.367Z,8.37
2024-02-18T09:25:34.592Z,8.48
2024-02-18T09:28:03.062Z,8.00
2024-02-18T09:30:33.130Z,8.35
2024-02-18T09:33:01.706Z,9.27
2024-02-18T09:35:30.410Z,9.20
2024-02-18T09:38:01.532Z,8.18
2024-02-18T09:40:31.310Z,8.30
2024-02-18T09:43:00.848Z,7.80
2024-02-18T09:45:30.589Z,7.88
2024-02-18T09:47:59.518Z,7.20
2024-02-18T09:50:29.083Z,6.85
2024-02-18T09:52:57.335Z,6.50
2024-02-18T09:55:25.963Z,5.82
2024-02-18T09:57:54.144Z,6.85
2024-02-18T10:00:22.544Z,5.80
2024-02-18T10:02:51.108Z,6.88
2024-02-18T10:05:19.516Z,7.53
2024-02-18T10:07:47.774Z,6.07
2024-02-18T10:10:16.128Z,5.75
2024-02-18T10:12:44.587Z,5.93
2024-02-18T10:15:13.185Z,5.68
2024-02-18T10:17:41.690Z,4.82
2024-02-18T10:20:10.648Z,5.22
2024-02-18T10:22:38.959Z,5.05
2024-02-18T10:25:09.161Z,4.80
2024-02-18T10:27:41.421Z,4.93
2024-02-18T10:30:10.653Z,4.43
2024-02-18T10:32:38.885Z,5.28
2024-02-18T10:35:07.874Z,5.70
2024-02-18T10:37:39.833Z,4.90
2024-02-18T10:40:15.556Z,4.53
2024-02-18T10:42:45.558Z,5.07
2024-02-18T10:45:14.519Z,4.40
2024-02-18T10:47:47.101Z,4.38
2024-02-18T10:50:15.537Z,4.60
2024-02-18T10:53:03.968Z,4.88
2024-02-18T10:55:39.802Z,4.80
2024-02-18T10:58:17.698Z,4.80
2024-02-18T11:00:48.396Z,5.07
2024-02-18T11:03:22.142Z,4.60
2024-02-18T11:05:52.803Z,4.40
2024-02-18T11:08:22.042Z,4.63
2024-02-18T11:10:50.412Z,3.88
2024-02-18T11:13:19.409Z,4.10
2024-02-18T11:15:49.209Z,4.77
2024-02-18T11:18:17.537Z,4.25
2024-02-18T11:20:46.205Z,4.10
2024-02-18T11:23:14.377Z,4.20
2024-02-18T11:25:42.495Z,4.00
2024-02-18T11:28:11.789Z,4.23
2024-02-18T11:30:39.875Z,5.00
2024-02-18T11:33:09.138Z,4.68
2024-02-18T11:35:37.372Z,4.80
2024-02-18T11:38:05.681Z,5.32
2024-02-18T11:40:37.169Z,4.40
2024-02-18T11:43:10.169Z,4.82
2024-02-18T11:45:46.604Z,4.35
2024-02-18T11:48:14.803Z,4.50
2024-02-18T11:50:43.075Z,4.95
2024-02-18T11:53:11.566Z,4.70
2024-02-18T11:55:39.710Z,4.55
2024-02-18T11:58:07.984Z,4.60
2024-02-18T12:00:36.212Z,4.40
2024-02-18T12:03:04.617Z,4.45
2024-02-18T12:05:32.937Z,4.50
2024-02-18T12:08:04.495Z,16.73
2024-02-18T12:10:36.842Z,18.08
2024-02-18T12:13:07.997Z,5.00
2024-02-18T12:15:36.190Z,19.85
2024-02-18T12:18:04.442Z,7.03
2024-02-18T12:20:34.949Z,4.47
2024-02-18T12:23:09.514Z,4.65
2024-02-18T12:25:38.337Z,4.75
2024-02-18T12:28:06.593Z,8.82
2024-02-18T12:30:34.694Z,9.40
2024-02-18T12:33:04.881Z,7.32
2024-02-18T12:35:34.774Z,8.20
2024-02-18T12:38:03.832Z,4.60
2024-02-18T12:40:32.196Z,4.40
2024-02-18T12:43:25.507Z,4.50
2024-02-18T12:45:54.242Z,4.78
2024-02-18T12:48:27.955Z,4.50
2024-02-18T12:51:12.569Z,3.50
2024-02-18T12:53:42.568Z,3.95
2024-02-18T12:56:12.389Z,3.83
2024-02-18T12:58:41.977Z,3.88
2024-02-18T13:01:11.372Z,3.67
2024-02-18T13:03:40.973Z,5.97
2024-02-18T13:06:11.857Z,7.38
2024-02-18T13:08:40.225Z,16.23
2024-02-18T13:11:10.234Z,4.70
2024-02-18T13:13:38.344Z,4.45
2024-02-18T13:16:06.902Z,4.35
2024-02-18T13:18:35.453Z,4.38
2024-02-18T13:21:03.566Z,4.00
2024-02-18T13:23:31.797Z,3.78
2024-02-18T13:26:00.037Z,3.60
2024-02-18T13:28:28.351Z,3.47
2024-02-18T13:30:56.467Z,3.50
2024-02-18T13:33:24.841Z,3.60
2024-02-18T13:35:54.556Z,3.38
2024-02-18T13:38:22.825Z,3.47
2024-02-18T13:40:51.225Z,3.40
2024-02-18T13:43:19.371Z,3.10
2024-02-18T13:45:47.447Z,3.50
2024-02-18T13:48:15.762Z,3.58
2024-02-18T13:50:43.982Z,3.53
2024-02-18T13:53:12.186Z,3.10
2024-02-18T13:55:40.348Z,3.28
2024-02-18T13:58:08.737Z,3.33
2024-02-18T14:00:37.577Z,3.10
2024-02-18T14:03:06.191Z,3.33
2024-02-18T14:05:34.918Z,3.80
2024-02-18T14:08:03.026Z,3.10
2024-02-18T14:10:31.384Z,3.10
2024-02-18T14:12:59.488Z,3.53
2024-02-18T14:15:28.704Z,3.40
2024-02-18T14:17:57.599Z,3.58
2024-02-18T14:20:27.034Z,3.40
2024-02-18T14:22:55.064Z,3.70
2024-02-18T14:25:23.646Z,3.60
2024-02-18T14:27:52.216Z,3.80
2024-02-18T14:30:20.673Z,3.55
2024-02-18T14:32:49.072Z,3.65
2024-02-18T14:35:17.261Z,3.93
2024-02-18T14:37:45.510Z,3.50
2024-02-18T14:40:15.474Z,4.50
2024-02-18T14:42:44.665Z,4.00
2024-02-18T14:45:15.935Z,3.92
2024-02-18T14:47:44.337Z,3.57
2024-02-18T14:50:13.029Z,4.05
2024-02-18T14:52:41.761Z,3.88
2024-02-18T14:55:10.631Z,3.53
2024-02-18T14:57:40.345Z,3.42
2024-02-18T15:00:10.664Z,4.03
2024-02-18T15:02:41.812Z,4.00
2024-02-18T15:05:12.805Z,4.40
2024-02-18T15:07:41.881Z,3.70
2024-02-18T15:10:10.433Z,3.80
2024-02-18T15:12:39.254Z,3.67
2024-02-18T15:15:07.465Z,3.65
2024-02-18T15:17:36.495Z,3.72
2024-02-18T15:20:07.701Z,3.30
2024-02-18T15:22:38.337Z,3.85
2024-02-18T15:25:08.010Z,3.50
2024-02-18T15:27:36.592Z,3.70
2024-02-18T15:30:05.021Z,3.97
2024-02-18T15:32:33.051Z,3.55
2024-02-18T15:35:01.351Z,3.42
2024-02-18T15:37:29.564Z,4.10
2024-02-18T15:39:58.042Z,3.85
2024-02-18T15:42:26.402Z,3.60
2024-02-18T15:44:54.692Z,3.55
2024-02-18T15:47:23.604Z,3.50
2024-02-18T15:49:51.952Z,3.53
2024-02-18T15:52:20.090Z,3.72
2024-02-18T15:54:48.375Z,3.90
2024-02-18T15:57:16.602Z,3.40
2024-02-18T15:59:44.794Z,3.55
2024-02-18T16:02:13.329Z,3.20
2024-02-18T16:04:47.611Z,3.15
2024-02-18T16:07:16.242Z,3.50
2024-02-18T16:09:53.530Z,3.88
2024-02-18T16:12:21.946Z,4.25
2024-02-18T16:14:50.537Z,4.10
2024-02-18T16:17:18.812Z,4.65
2024-02-18T16:19:47.079Z,5.07
2024-02-18T16:22:15.826Z,4.95
2024-02-18T16:24:46.012Z,4.93
2024-02-18T16:27:14.517Z,5.00
2024-02-18T16:29:42.940Z,5.20
2024-02-18T16:32:12.961Z,5.38
2024-02-18T16:34:41.922Z,4.82
2024-02-18T16:37:10.340Z,4.80
2024-02-18T16:39:39.265Z,4.90
2024-02-18T16:42:07.525Z,4.80
2024-02-18T16:44:35.594Z,4.70
2024-02-18T16:47:06.444Z,4.95
2024-02-18T16:49:34.876Z,4.55
2024-02-18T16:52:03.753Z,4.90
2024-02-18T16:54:32.221Z,4.50
2024-02-18T16:57:02.032Z,4.95
2024-02-18T16:59:30.327Z,5.20
2024-02-18T17:01:58.503Z,4.93
2024-02-18T17:04:26.867Z,4.70
2024-02-18T17:06:55.197Z,3.97
2024-02-18T17:09:23.899Z,4.65
2024-02-18T17:11:52.547Z,4.45
2024-02-18T17:14:21.335Z,4.82
2024-02-18T17:16:49.453Z,4.97
2024-02-18T17:19:17.733Z,4.90
2024-02-18T17:21:46.053Z,5.43
2024-02-18T17:24:14.387Z,5.07
2024-02-18T17:26:42.657Z,4.68
2024-02-18T17:29:10.972Z,4.33
2024-02-18T17:31:39.194Z,4.75
2024-02-18T17:34:10.221Z,4.93
2024-02-18T17:36:39.063Z,5.28
2024-02-18T17:39:09.662Z,5.38
2024-02-18T17:41:38.068Z,5.97
2024-02-18T17:44:06.339Z,6.25
2024-02-18T17:46:34.748Z,5.82
2024-02-18T17:49:03.000Z,5.53
2024-02-18T17:51:35.246Z,6.13
2024-02-18T17:54:03.944Z,5.90
2024-02-18T17:56:35.134Z,6.40
2024-02-18T17:59:09.105Z,6.10
2024-02-18T18:01:37.857Z,6.30
2024-02-18T18:04:06.260Z,7.80
2024-02-18T18:06:36.227Z,9.10
2024-02-18T18:09:04.579Z,7.93
2024-02-18T18:11:32.923Z,8.82
2024-02-18T18:14:01.762Z,8.50
2024-02-18T18:16:29.803Z,8.30
2024-02-18T18:18:57.982Z,8.00
2024-02-18T18:21:27.678Z,8.00
2024-02-18T18:23:58.402Z,8.20
2024-02-18T18:26:27.506Z,7.50
2024-02-18T18:28:55.984Z,8.05
2024-02-18T18:31:24.273Z,7.23
2024-02-18T18:33:52.714Z,7.43
2024-02-18T18:36:20.982Z,7.40
2024-02-18T18:38:49.167Z,7.68
2024-02-18T18:41:17.559Z,7.85
2024-02-18T18:43:45.678Z,7.50
2024-02-18T18:46:14.277Z,8.18
2024-02-18T18:48:42.695Z,10.55
2024-02-18T18:51:11.168Z,9.48
2024-02-18T18:53:39.845Z,9.60
2024-02-18T18:56:10.602Z,8.70
2024-02-18T18:58:40.427Z,8.45
2024-02-18T19:01:08.769Z,8.00
2024-02-18T19:03:37.245Z,7.85
2024-02-18T19:06:05.893Z,8.23
2024-02-18T19:08:34.239Z,7.10
2024-02-18T19:11:03.568Z,7.20
2024-02-18T19:13:42.296Z,7.80
2024-02-18T19:16:18.399Z,7.50
2024-02-18T19:18:51.949Z,7.60
2024-02-18T19:21:20.870Z,7.20
2024-02-18T19:23:48.982Z,7.20
2024-02-18T19:26:17.292Z,7.60
2024-02-18T19:28:45.694Z,7.90
2024-02-18T19:31:17.899Z,8.75
2024-02-18T19:33:47.702Z,8.90
2024-02-18T19:36:17.103Z,9.10
2024-02-18T19:38:46.265Z,9.55
2024-02-18T19:41:14.728Z,9.23
2024-02-18T19:43:43.487Z,9.23
2024-02-18T19:46:12.033Z,9.70
2024-02-18T19:48:42.736Z,9.47
2024-02-18T19:51:12.486Z,9.70
2024-02-18T19:53:43.653Z,9.57
2024-02-18T19:56:11.816Z,9.20
2024-02-18T19:58:40.133Z,8.02
2024-02-18T20:01:11.868Z,8.43
2024-02-18T20:03:40.443Z,7.70
2024-02-18T20:06:09.507Z,6.90
2024-02-18T20:08:39.836Z,6.45
2024-02-18T20:11:08.576Z,6.45
2024-02-18T20:13:37.078Z,6.23
2024-02-18T20:16:05.673Z,6.68
2024-02-18T20:18:34.523Z,5.93
2024-02-18T20:21:04.896Z,6.43
2024-02-18T20:23:33.480Z,6.55
2024-02-18T20:26:01.753Z,6.13
2024-02-18T20:28:30.348Z,6.20
2024-02-18T20:30:58.585Z,6.35
2024-02-18T20:33:27.007Z,6.50
2024-02-18T20:35:56.464Z,6.60
2024-02-18T20:38:25.185Z,6.30
2024-02-18T20:40:54.694Z,6.78
2024-02-18T20:43:22.993Z,6.30
2024-02-18T20:45:51.349Z,5.88
2024-02-18T20:48:20.036Z,6.45
2024-02-18T20:50:48.949Z,6.80
2024-02-18T20:53:17.196Z,6.50
2024-02-18T20:55:45.431Z,6.53
2024-02-18T20:58:14.444Z,7.00
2024-02-18T21:00:43.361Z,7.30
2024-02-18T21:03:11.877Z,7.57
2024-02-18T21:05:40.156Z,7.57
2024-02-18T21:08:09.407Z,7.18
2024-02-18T21:10:37.863Z,7.68
2024-02-18T21:13:06.758Z,7.88
2024-02-18T21:15:35.076Z,8.30
2024-02-18T21:18:03.414Z,8.52
2024-02-18T21:20:31.860Z,8.45
2024-02-18T21:23:00.139Z,8.57
2024-02-18T21:25:29.511Z,8.52
2024-02-18T21:27:57.942Z,8.17
2024-02-18T21:30:26.225Z,8.02
2024-02-18T21:32:55.007Z,8.18
2024-02-18T21:35:24.948Z,8.30
2024-02-18T21:37:53.449Z,7.95
2024-02-18T21:40:21.511Z,7.80
2024-02-18T21:42:49.841Z,8.02
2024-02-18T21:45:18.188Z,7.35
2024-02-18T21:47:47.113Z,7.63
2024-02-18T21:50:16.168Z,8.30
2024-02-18T21:52:44.973Z,8.30
2024-02-18T21:55:14.144Z,8.88
2024-02-18T21:57:42.650Z,9.00
2024-02-18T22:00:11.740Z,8.82
2024-02-18T22:02:40.141Z,9.00
2024-02-18T22:05:09.276Z,8.93
2024-02-18T22:07:37.557Z,8.90
2024-02-18T22:10:05.898Z,9.00
2024-02-18T22:12:34.193Z,8.93
2024-02-18T22:15:02.284Z,8.60
2024-02-18T22:17:30.529Z,9.03
2024-02-18T22:19:58.819Z,9.10
2024-02-18T22:22:27.081Z,9.45
2024-02-18T22:24:55.441Z,8.70
2024-02-18T22:27:23.666Z,8.50
2024-02-18T22:29:51.673Z,8.40
2024-02-18T22:32:19.861Z,8.83
2024-02-18T22:34:48.099Z,8.55
2024-02-18T22:37:17.313Z,10.07
2024-02-18T22:39:45.959Z,10.93
2024-02-18T22:42:14.173Z,9.65
2024-02-18T22:44:42.141Z,10.83
2024-02-18T22:47:10.416Z,9.30
2024-02-18T22:49:38.916Z,9.93
2024-02-18T22:52:07.393Z,8.80
2024-02-18T22:54:35.616Z,8.63
2024-02-18T22:57:03.903Z,9.10
2024-02-18T22:59:32.064Z,8.93
2024-02-18T23:02:00.436Z,9.70
2024-02-18T23:04:28.806Z,9.55
2024-02-18T23:06:57.107Z,9.02
2024-02-18T23:09:25.248Z,8.63
2024-02-18T23:11:54.757Z,9.40
2024-02-18T23:14:23.247Z,8.93
2024-02-18T23:16:51.374Z,9.02
2024-02-18T23:19:19.681Z,8.88
2024-02-18T23:21:48.025Z,9.17
2024-02-18T23:24:19.374Z,9.02
2024-02-18T23:26:49.411Z,9.45
2024-02-18T23:29:17.533Z,9.38
2024-02-18T23:31:45.622Z,9.23
2024-02-18T23:34:14.354Z,9.10
2024-02-18T23:36:42.553Z,8.98
2024-02-18T23:39:10.728Z,9.02
2024-02-18T23:41:39.153Z,8.27
2024-02-18T23:44:07.457Z,8.55
2024-02-18T23:46:35.953Z,8.30
2024-02-18T23:49:04.397Z,8.13
2024-02-18T23:51:32.551Z,8.27
2024-02-18T23:54:00.658Z,7.80
2024-02-18T23:56:32.535Z,8.00
2024-02-18T23:59:01.056Z,7.43
